sensor_id;sensor_type;location;lat;lon;timestamp;P1;durP1;ratioP1;P2;durP2;ratioP2
2646;SDS011;1333;50.958;6.770;2023-04-24T00:01:11;1.47;;;1.07;;
2646;SDS011;1333;50.958;6.770;2023-04-24T00:03:37;1.00;;;0.80;;
2646;SDS011;1333;50.958;6.770;2023-04-24T00:06:03;1.20;;;0.90;;
2646;SDS011;1333;50.958;6.770;2023-04-24T00:08:31;1.30;;;1.00;;
2646;SDS011;1333;50.958;6.770;2023-04-24T00:10:57;1.30;;;0.90;;
2646;SDS011;1333;50.958;6.770;2023-04-24T00:13:22;1.10;;;0.90;;
2646;SDS011;1333;50.958;6.770;2023-04-24T00:15:48;1.20;;;1.00;;
2646;SDS011;1333;50.958;6.770;2023-04-24T00:18:14;1.40;;;1.13;;
2646;SDS011;1333;50.958;6.770;2023-04-24T00:20:39;1.10;;;0.90;;
2646;SDS011;1333;50.958;6.770;2023-04-24T00:23:05;1.60;;;1.10;;
2646;SDS011;1333;50.958;6.770;2023-04-24T00:25:30;2.50;;;1.00;;
2646;SDS011;1333;50.958;6.770;2023-04-24T00:27:56;1.23;;;1.13;;
2646;SDS011;1333;50.958;6.770;2023-04-24T00:30:22;1.30;;;1.20;;
2646;SDS011;1333;50.958;6.770;2023-04-24T00:32:47;1.73;;;1.13;;
2646;SDS011;1333;50.958;6.770;2023-04-24T00:35:13;1.20;;;1.10;;
2646;SDS011;1333;50.958;6.770;2023-04-24T00:37:39;1.17;;;1.00;;
2646;SDS011;1333;50.958;6.770;2023-04-24T00:40:05;1.17;;;0.90;;
2646;SDS011;1333;50.958;6.770;2023-04-24T00:42:31;1.60;;;1.00;;
2646;SDS011;1333;50.958;6.770;2023-04-24T00:44:57;1.30;;;0.90;;
2646;SDS011;1333;50.958;6.770;2023-04-24T00:47:24;1.20;;;1.07;;
2646;SDS011;1333;50.958;6.770;2023-04-24T00:49:50;1.23;;;1.13;;
2646;SDS011;1333;50.958;6.770;2023-04-24T00:52:16;2.43;;;1.27;;
2646;SDS011;1333;50.958;6.770;2023-04-24T00:54:43;1.30;;;1.20;;
2646;SDS011;1333;50.958;6.770;2023-04-24T00:57:10;1.50;;;1.40;;
2646;SDS011;1333;50.958;6.770;2023-04-24T00:59:35;1.30;;;1.20;;
2646;SDS011;1333;50.958;6.770;2023-04-24T01:02:01;2.17;;;1.10;;
2646;SDS011;1333;50.958;6.770;2023-04-24T01:04:27;1.43;;;1.20;;
2646;SDS011;1333;50.958;6.770;2023-04-24T01:06:53;1.50;;;1.10;;
2646;SDS011;1333;50.958;6.770;2023-04-24T01:09:21;1.50;;;1.27;;
2646;SDS011;1333;50.958;6.770;2023-04-24T01:11:48;1.27;;;1.17;;
2646;SDS011;1333;50.958;6.770;2023-04-24T01:14:14;4.93;;;1.50;;
2646;SDS011;1333;50.958;6.770;2023-04-24T01:16:40;1.40;;;1.30;;
2646;SDS011;1333;50.958;6.770;2023-04-24T01:19:06;2.97;;;1.47;;
2646;SDS011;1333;50.958;6.770;2023-04-24T01:21:34;1.40;;;1.30;;
2646;SDS011;1333;50.958;6.770;2023-04-24T01:24:02;2.40;;;1.90;;
2646;SDS011;1333;50.958;6.770;2023-04-24T01:26:28;2.90;;;2.00;;
2646;SDS011;1333;50.958;6.770;2023-04-24T01:28:54;8.73;;;1.70;;
2646;SDS011;1333;50.958;6.770;2023-04-24T01:31:20;2.77;;;2.33;;
2646;SDS011;1333;50.958;6.770;2023-04-24T01:33:46;4.00;;;1.70;;
2646;SDS011;1333;50.958;6.770;2023-04-24T01:36:12;3.10;;;2.20;;
2646;SDS011;1333;50.958;6.770;2023-04-24T01:38:38;2.70;;;1.90;;
2646;SDS011;1333;50.958;6.770;2023-04-24T01:41:04;2.37;;;1.97;;
2646;SDS011;1333;50.958;6.770;2023-04-24T01:43:29;2.90;;;2.23;;
2646;SDS011;1333;50.958;6.770;2023-04-24T01:45:55;3.27;;;2.97;;
2646;SDS011;1333;50.958;6.770;2023-04-24T01:48:21;3.07;;;2.77;;
2646;SDS011;1333;50.958;6.770;2023-04-24T01:50:47;3.83;;;2.77;;
2646;SDS011;1333;50.958;6.770;2023-04-24T01:53:13;3.70;;;3.20;;
2646;SDS011;1333;50.958;6.770;2023-04-24T01:55:38;5.87;;;3.53;;
2646;SDS011;1333;50.958;6.770;2023-04-24T01:58:05;4.37;;;3.53;;
2646;SDS011;1333;50.958;6.770;2023-04-24T02:00:30;4.43;;;3.13;;
2646;SDS011;1333;50.958;6.770;2023-04-24T02:02:56;5.17;;;3.23;;
2646;SDS011;1333;50.958;6.770;2023-04-24T02:05:21;5.37;;;4.10;;
2646;SDS011;1333;50.958;6.770;2023-04-24T02:07:47;6.93;;;4.40;;
2646;SDS011;1333;50.958;6.770;2023-04-24T02:10:12;5.30;;;3.87;;
2646;SDS011;1333;50.958;6.770;2023-04-24T02:12:38;5.80;;;3.10;;
2646;SDS011;1333;50.958;6.770;2023-04-24T02:15:04;5.10;;;4.60;;
2646;SDS011;1333;50.958;6.770;2023-04-24T02:17:30;7.00;;;4.07;;
2646;SDS011;1333;50.958;6.770;2023-04-24T02:19:55;8.40;;;4.63;;
2646;SDS011;1333;50.958;6.770;2023-04-24T02:22:21;8.80;;;4.40;;
2646;SDS011;1333;50.958;6.770;2023-04-24T02:24:46;4.80;;;4.03;;
2646;SDS011;1333;50.958;6.770;2023-04-24T02:27:12;7.33;;;4.47;;
2646;SDS011;1333;50.958;6.770;2023-04-24T02:29:37;12.40;;;4.40;;
2646;SDS011;1333;50.958;6.770;2023-04-24T02:32:03;5.83;;;4.53;;
2646;SDS011;1333;50.958;6.770;2023-04-24T02:34:29;3.80;;;3.40;;
2646;SDS011;1333;50.958;6.770;2023-04-24T02:36:54;8.00;;;4.50;;
2646;SDS011;1333;50.958;6.770;2023-04-24T02:39:20;4.40;;;3.97;;
2646;SDS011;1333;50.958;6.770;2023-04-24T02:41:45;5.73;;;3.90;;
2646;SDS011;1333;50.958;6.770;2023-04-24T02:44:11;4.70;;;3.50;;
2646;SDS011;1333;50.958;6.770;2023-04-24T02:46:37;7.07;;;4.63;;
2646;SDS011;1333;50.958;6.770;2023-04-24T02:49:02;5.30;;;4.23;;
2646;SDS011;1333;50.958;6.770;2023-04-24T02:51:28;3.90;;;3.60;;
2646;SDS011;1333;50.958;6.770;2023-04-24T02:53:54;8.00;;;5.47;;
2646;SDS011;1333;50.958;6.770;2023-04-24T02:56:20;6.57;;;4.57;;
2646;SDS011;1333;50.958;6.770;2023-04-24T02:58:45;6.77;;;4.60;;
2646;SDS011;1333;50.958;6.770;2023-04-24T03:01:11;4.60;;;4.10;;
2646;SDS011;1333;50.958;6.770;2023-04-24T03:03:37;5.30;;;4.07;;
2646;SDS011;1333;50.958;6.770;2023-04-24T03:06:03;6.53;;;5.10;;
2646;SDS011;1333;50.958;6.770;2023-04-24T03:08:30;8.97;;;5.60;;
2646;SDS011;1333;50.958;6.770;2023-04-24T03:10:56;7.67;;;4.90;;
2646;SDS011;1333;50.958;6.770;2023-04-24T03:13:22;7.33;;;5.13;;
2646;SDS011;1333;50.958;6.770;2023-04-24T03:15:47;6.60;;;5.17;;
2646;SDS011;1333;50.958;6.770;2023-04-24T03:18:13;7.57;;;4.83;;
2646;SDS011;1333;50.958;6.770;2023-04-24T03:20:38;5.50;;;5.00;;
2646;SDS011;1333;50.958;6.770;2023-04-24T03:23:04;7.50;;;4.20;;
2646;SDS011;1333;50.958;6.770;2023-04-24T03:25:29;6.07;;;4.37;;
2646;SDS011;1333;50.958;6.770;2023-04-24T03:27:55;7.00;;;4.67;;
2646;SDS011;1333;50.958;6.770;2023-04-24T03:30:20;8.73;;;4.10;;
2646;SDS011;1333;50.958;6.770;2023-04-24T03:32:46;6.70;;;5.60;;
2646;SDS011;1333;50.958;6.770;2023-04-24T03:35:12;6.93;;;4.53;;
2646;SDS011;1333;50.958;6.770;2023-04-24T03:37:37;6.63;;;4.70;;
2646;SDS011;1333;50.958;6.770;2023-04-24T03:40:03;7.30;;;4.80;;
2646;SDS011;1333;50.958;6.770;2023-04-24T03:42:29;7.07;;;4.37;;
2646;SDS011;1333;50.958;6.770;2023-04-24T03:44:54;8.33;;;4.90;;
2646;SDS011;1333;50.958;6.770;2023-04-24T03:47:20;5.90;;;4.40;;
2646;SDS011;1333;50.958;6.770;2023-04-24T03:49:45;5.30;;;4.80;;
2646;SDS011;1333;50.958;6.770;2023-04-24T03:52:11;5.13;;;3.93;;
2646;SDS011;1333;50.958;6.770;2023-04-24T03:54:36;6.70;;;4.57;;
2646;SDS011;1333;50.958;6.770;2023-04-24T03:57:02;6.10;;;4.67;;
2646;SDS011;1333;50.958;6.770;2023-04-24T03:59:29;5.97;;;4.77;;
2646;SDS011;1333;50.958;6.770;2023-04-24T04:01:55;4.00;;;3.63;;
2646;SDS011;1333;50.958;6.770;2023-04-24T04:04:20;7.17;;;3.67;;
2646;SDS011;1333;50.958;6.770;2023-04-24T04:06:46;5.83;;;3.87;;
2646;SDS011;1333;50.958;6.770;2023-04-24T04:09:11;5.77;;;4.60;;
2646;SDS011;1333;50.958;6.770;2023-04-24T04:11:37;5.63;;;3.63;;
2646;SDS011;1333;50.958;6.770;2023-04-24T04:14:03;4.40;;;4.00;;
2646;SDS011;1333;50.958;6.770;2023-04-24T04:16:28;6.17;;;4.20;;
2646;SDS011;1333;50.958;6.770;2023-04-24T04:18:55;4.53;;;3.90;;
2646;SDS011;1333;50.958;6.770;2023-04-24T04:21:20;5.23;;;4.53;;
2646;SDS011;1333;50.958;6.770;2023-04-24T04:23:46;4.70;;;3.80;;
2646;SDS011;1333;50.958;6.770;2023-04-24T04:26:11;5.83;;;3.80;;
2646;SDS011;1333;50.958;6.770;2023-04-24T04:28:40;6.90;;;4.83;;
2646;SDS011;1333;50.958;6.770;2023-04-24T04:31:05;4.50;;;3.90;;
2646;SDS011;1333;50.958;6.770;2023-04-24T04:33:32;5.27;;;3.37;;
2646;SDS011;1333;50.958;6.770;2023-04-24T04:35:58;3.23;;;2.97;;
2646;SDS011;1333;50.958;6.770;2023-04-24T04:38:25;3.60;;;3.30;;
2646;SDS011;1333;50.958;6.770;2023-04-24T04:40:54;3.73;;;3.40;;
2646;SDS011;1333;50.958;6.770;2023-04-24T04:43:21;3.97;;;3.67;;
2646;SDS011;1333;50.958;6.770;2023-04-24T04:45:49;5.37;;;3.20;;
2646;SDS011;1333;50.958;6.770;2023-04-24T04:48:16;5.87;;;3.20;;
2646;SDS011;1333;50.958;6.770;2023-04-24T04:50:42;4.87;;;4.37;;
2646;SDS011;1333;50.958;6.770;2023-04-24T04:53:08;6.10;;;4.03;;
2646;SDS011;1333;50.958;6.770;2023-04-24T04:55:33;3.47;;;3.17;;
2646;SDS011;1333;50.958;6.770;2023-04-24T04:57:59;3.93;;;3.07;;
2646;SDS011;1333;50.958;6.770;2023-04-24T05:00:25;4.20;;;3.00;;
2646;SDS011;1333;50.958;6.770;2023-04-24T05:02:52;4.20;;;3.30;;
2646;SDS011;1333;50.958;6.770;2023-04-24T05:05:17;4.60;;;3.10;;
2646;SDS011;1333;50.958;6.770;2023-04-24T05:07:43;4.13;;;3.10;;
2646;SDS011;1333;50.958;6.770;2023-04-24T05:10:09;4.70;;;4.00;;
2646;SDS011;1333;50.958;6.770;2023-04-24T05:12:35;4.10;;;3.63;;
2646;SDS011;1333;50.958;6.770;2023-04-24T05:15:01;3.93;;;3.27;;
2646;SDS011;1333;50.958;6.770;2023-04-24T05:17:26;5.07;;;3.10;;
2646;SDS011;1333;50.958;6.770;2023-04-24T05:19:52;7.43;;;4.20;;
2646;SDS011;1333;50.958;6.770;2023-04-24T05:22:17;4.20;;;3.67;;
2646;SDS011;1333;50.958;6.770;2023-04-24T05:24:45;4.77;;;3.90;;
2646;SDS011;1333;50.958;6.770;2023-04-24T05:27:11;4.37;;;3.93;;
2646;SDS011;1333;50.958;6.770;2023-04-24T05:29:37;4.80;;;4.23;;
2646;SDS011;1333;50.958;6.770;2023-04-24T05:32:02;8.00;;;4.70;;
2646;SDS011;1333;50.958;6.770;2023-04-24T05:34:28;7.23;;;4.47;;
2646;SDS011;1333;50.958;6.770;2023-04-24T05:36:54;5.37;;;4.23;;
2646;SDS011;1333;50.958;6.770;2023-04-24T05:39:19;4.53;;;3.37;;
2646;SDS011;1333;50.958;6.770;2023-04-24T05:41:45;16.73;;;4.53;;
2646;SDS011;1333;50.958;6.770;2023-04-24T05:44:11;3.63;;;3.33;;
2646;SDS011;1333;50.958;6.770;2023-04-24T05:46:36;6.53;;;3.40;;
2646;SDS011;1333;50.958;6.770;2023-04-24T05:49:02;5.23;;;3.93;;
2646;SDS011;1333;50.958;6.770;2023-04-24T05:51:27;4.00;;;3.30;;
2646;SDS011;1333;50.958;6.770;2023-04-24T05:53:53;4.10;;;3.43;;
2646;SDS011;1333;50.958;6.770;2023-04-24T05:56:19;3.43;;;2.97;;
2646;SDS011;1333;50.958;6.770;2023-04-24T05:58:45;4.40;;;3.30;;
2646;SDS011;1333;50.958;6.770;2023-04-24T06:01:11;3.90;;;2.87;;
2646;SDS011;1333;50.958;6.770;2023-04-24T06:03:37;5.10;;;2.60;;
2646;SDS011;1333;50.958;6.770;2023-04-24T06:06:05;4.00;;;2.67;;
2646;SDS011;1333;50.958;6.770;2023-04-24T06:08:31;2.80;;;2.60;;
2646;SDS011;1333;50.958;6.770;2023-04-24T06:10:57;4.80;;;2.27;;
2646;SDS011;1333;50.958;6.770;2023-04-24T06:13:23;6.20;;;2.50;;
2646;SDS011;1333;50.958;6.770;2023-04-24T06:15:48;1.93;;;1.47;;
2646;SDS011;1333;50.958;6.770;2023-04-24T06:18:14;3.37;;;2.77;;
2646;SDS011;1333;50.958;6.770;2023-04-24T06:20:40;2.07;;;1.87;;
2646;SDS011;1333;50.958;6.770;2023-04-24T06:23:05;2.17;;;1.90;;
2646;SDS011;1333;50.958;6.770;2023-04-24T06:25:31;2.33;;;1.73;;
2646;SDS011;1333;50.958;6.770;2023-04-24T06:27:56;5.33;;;2.40;;
2646;SDS011;1333;50.958;6.770;2023-04-24T06:30:22;3.10;;;1.47;;
2646;SDS011;1333;50.958;6.770;2023-04-24T06:32:48;2.37;;;2.17;;
2646;SDS011;1333;50.958;6.770;2023-04-24T06:35:13;2.07;;;1.63;;
2646;SDS011;1333;50.958;6.770;2023-04-24T06:37:42;2.37;;;1.60;;
2646;SDS011;1333;50.958;6.770;2023-04-24T06:40:08;1.97;;;1.77;;
2646;SDS011;1333;50.958;6.770;2023-04-24T06:42:35;2.37;;;1.20;;
2646;SDS011;1333;50.958;6.770;2023-04-24T06:45:01;1.97;;;1.50;;
2646;SDS011;1333;50.958;6.770;2023-04-24T06:47:27;4.00;;;1.90;;
2646;SDS011;1333;50.958;6.770;2023-04-24T06:49:52;1.77;;;1.67;;
2646;SDS011;1333;50.958;6.770;2023-04-24T06:52:18;1.80;;;1.50;;
2646;SDS011;1333;50.958;6.770;2023-04-24T06:54:44;2.17;;;1.60;;
2646;SDS011;1333;50.958;6.770;2023-04-24T06:57:10;2.30;;;1.50;;
2646;SDS011;1333;50.958;6.770;2023-04-24T06:59:35;2.10;;;1.90;;
2646;SDS011;1333;50.958;6.770;2023-04-24T07:02:01;2.90;;;2.30;;
2646;SDS011;1333;50.958;6.770;2023-04-24T07:04:28;2.63;;;1.40;;
2646;SDS011;1333;50.958;6.770;2023-04-24T07:06:53;2.57;;;2.20;;
2646;SDS011;1333;50.958;6.770;2023-04-24T07:09:20;2.13;;;1.93;;
2646;SDS011;1333;50.958;6.770;2023-04-24T07:11:47;2.53;;;2.00;;
2646;SDS011;1333;50.958;6.770;2023-04-24T07:14:13;2.93;;;1.87;;
2646;SDS011;1333;50.958;6.770;2023-04-24T07:16:38;2.63;;;2.00;;
2646;SDS011;1333;50.958;6.770;2023-04-24T07:19:04;2.00;;;1.80;;
2646;SDS011;1333;50.958;6.770;2023-04-24T07:21:31;2.80;;;2.20;;
2646;SDS011;1333;50.958;6.770;2023-04-24T07:23:57;1.43;;;1.33;;
2646;SDS011;1333;50.958;6.770;2023-04-24T07:26:23;1.70;;;1.43;;
2646;SDS011;1333;50.958;6.770;2023-04-24T07:28:48;1.93;;;1.47;;
2646;SDS011;1333;50.958;6.770;2023-04-24T07:31:14;2.03;;;1.50;;
2646;SDS011;1333;50.958;6.770;2023-04-24T07:33:40;2.10;;;1.90;;
2646;SDS011;1333;50.958;6.770;2023-04-24T07:36:05;1.80;;;1.40;;
2646;SDS011;1333;50.958;6.770;2023-04-24T07:38:31;2.70;;;1.80;;
2646;SDS011;1333;50.958;6.770;2023-04-24T07:40:57;2.47;;;1.67;;
2646;SDS011;1333;50.958;6.770;2023-04-24T07:43:23;1.50;;;1.10;;
2646;SDS011;1333;50.958;6.770;2023-04-24T07:45:49;1.43;;;1.00;;
2646;SDS011;1333;50.958;6.770;2023-04-24T07:48:15;1.93;;;1.70;;
2646;SDS011;1333;50.958;6.770;2023-04-24T07:50:41;2.10;;;1.30;;
2646;SDS011;1333;50.958;6.770;2023-04-24T07:53:07;2.70;;;1.60;;
2646;SDS011;1333;50.958;6.770;2023-04-24T07:55:33;2.33;;;1.23;;
2646;SDS011;1333;50.958;6.770;2023-04-24T07:57:58;1.20;;;1.10;;
2646;SDS011;1333;50.958;6.770;2023-04-24T08:00:24;1.00;;;0.90;;
2646;SDS011;1333;50.958;6.770;2023-04-24T08:02:49;1.67;;;1.10;;
2646;SDS011;1333;50.958;6.770;2023-04-24T08:05:15;2.07;;;1.13;;
2646;SDS011;1333;50.958;6.770;2023-04-24T08:07:41;1.30;;;0.90;;
2646;SDS011;1333;50.958;6.770;2023-04-24T08:10:07;2.23;;;1.90;;
2646;SDS011;1333;50.958;6.770;2023-04-24T08:12:35;2.43;;;1.63;;
2646;SDS011;1333;50.958;6.770;2023-04-24T08:15:00;1.57;;;1.43;;
2646;SDS011;1333;50.958;6.770;2023-04-24T08:17:26;2.07;;;1.10;;
2646;SDS011;1333;50.958;6.770;2023-04-24T08:19:58;1.57;;;1.00;;
2646;SDS011;1333;50.958;6.770;2023-04-24T08:22:35;2.00;;;1.30;;
2646;SDS011;1333;50.958;6.770;2023-04-24T08:25:01;1.00;;;0.83;;
2646;SDS011;1333;50.958;6.770;2023-04-24T08:27:26;1.27;;;1.17;;
2646;SDS011;1333;50.958;6.770;2023-04-24T08:29:53;1.50;;;1.40;;
2646;SDS011;1333;50.958;6.770;2023-04-24T08:32:19;1.73;;;1.20;;
2646;SDS011;1333;50.958;6.770;2023-04-24T08:34:44;2.13;;;1.53;;
2646;SDS011;1333;50.958;6.770;2023-04-24T08:37:10;1.30;;;1.20;;
2646;SDS011;1333;50.958;6.770;2023-04-24T08:39:36;1.40;;;1.20;;
2646;SDS011;1333;50.958;6.770;2023-04-24T08:42:04;2.27;;;1.67;;
2646;SDS011;1333;50.958;6.770;2023-04-24T08:44:33;2.10;;;1.60;;
2646;SDS011;1333;50.958;6.770;2023-04-24T08:47:01;2.40;;;1.80;;
2646;SDS011;1333;50.958;6.770;2023-04-24T08:49:28;2.13;;;1.80;;
2646;SDS011;1333;50.958;6.770;2023-04-24T08:51:54;3.77;;;2.33;;
2646;SDS011;1333;50.958;6.770;2023-04-24T08:54:20;2.47;;;1.70;;
2646;SDS011;1333;50.958;6.770;2023-04-24T08:56:47;2.20;;;2.00;;
2646;SDS011;1333;50.958;6.770;2023-04-24T08:59:14;3.60;;;2.27;;
2646;SDS011;1333;50.958;6.770;2023-04-24T09:01:40;2.30;;;2.07;;
2646;SDS011;1333;50.958;6.770;2023-04-24T09:04:09;3.10;;;2.80;;
2646;SDS011;1333;50.958;6.770;2023-04-24T09:06:37;4.23;;;2.50;;
2646;SDS011;1333;50.958;6.770;2023-04-24T09:09:03;4.37;;;3.20;;
2646;SDS011;1333;50.958;6.770;2023-04-24T09:11:30;6.20;;;2.83;;
2646;SDS011;1333;50.958;6.770;2023-04-24T09:13:57;3.67;;;3.03;;
2646;SDS011;1333;50.958;6.770;2023-04-24T09:16:24;4.40;;;3.37;;
2646;SDS011;1333;50.958;6.770;2023-04-24T09:18:51;5.17;;;3.50;;
2646;SDS011;1333;50.958;6.770;2023-04-24T09:21:16;7.53;;;3.60;;
2646;SDS011;1333;50.958;6.770;2023-04-24T09:23:42;4.97;;;3.23;;
2646;SDS011;1333;50.958;6.770;2023-04-24T09:26:08;4.13;;;3.57;;
2646;SDS011;1333;50.958;6.770;2023-04-24T09:28:36;6.50;;;3.47;;
2646;SDS011;1333;50.958;6.770;2023-04-24T09:31:08;5.03;;;3.20;;
2646;SDS011;1333;50.958;6.770;2023-04-24T09:33:35;8.70;;;3.30;;
2646;SDS011;1333;50.958;6.770;2023-04-24T09:36:01;4.33;;;3.40;;
2646;SDS011;1333;50.958;6.770;2023-04-24T09:38:37;4.23;;;3.63;;
2646;SDS011;1333;50.958;6.770;2023-04-24T09:41:04;6.43;;;4.17;;
2646;SDS011;1333;50.958;6.770;2023-04-24T09:43:31;6.87;;;4.13;;
2646;SDS011;1333;50.958;6.770;2023-04-24T09:45:58;8.57;;;4.60;;
2646;SDS011;1333;50.958;6.770;2023-04-24T09:48:35;9.93;;;3.83;;
2646;SDS011;1333;50.958;6.770;2023-04-24T09:51:02;3.67;;;3.17;;
2646;SDS011;1333;50.958;6.770;2023-04-24T09:53:29;6.03;;;4.17;;
2646;SDS011;1333;50.958;6.770;2023-04-24T09:55:56;5.50;;;3.23;;
2646;SDS011;1333;50.958;6.770;2023-04-24T09:58:28;3.93;;;2.80;;
2646;SDS011;1333;50.958;6.770;2023-04-24T10:00:54;3.60;;;2.93;;
2646;SDS011;1333;50.958;6.770;2023-04-24T10:03:22;6.07;;;2.87;;
2646;SDS011;1333;50.958;6.770;2023-04-24T10:05:51;4.07;;;2.30;;
2646;SDS011;1333;50.958;6.770;2023-04-24T10:08:17;3.33;;;2.70;;
2646;SDS011;1333;50.958;6.770;2023-04-24T10:10:43;3.10;;;2.80;;
2646;SDS011;1333;50.958;6.770;2023-04-24T10:13:10;2.47;;;2.23;;
2646;SDS011;1333;50.958;6.770;2023-04-24T10:15:37;2.70;;;2.50;;
2646;SDS011;1333;50.958;6.770;2023-04-24T10:18:04;4.90;;;2.20;;
2646;SDS011;1333;50.958;6.770;2023-04-24T10:20:31;6.70;;;2.20;;
2646;SDS011;1333;50.958;6.770;2023-04-24T10:22:59;2.37;;;2.10;;
2646;SDS011;1333;50.958;6.770;2023-04-24T10:25:27;4.70;;;2.50;;
2646;SDS011;1333;50.958;6.770;2023-04-24T10:27:57;10.20;;;2.87;;
2646;SDS011;1333;50.958;6.770;2023-04-24T10:30:27;6.43;;;2.03;;
2646;SDS011;1333;50.958;6.770;2023-04-24T10:32:54;2.60;;;1.67;;
2646;SDS011;1333;50.958;6.770;2023-04-24T10:35:21;5.23;;;1.87;;
2646;SDS011;1333;50.958;6.770;2023-04-24T10:37:51;4.40;;;2.10;;
2646;SDS011;1333;50.958;6.770;2023-04-24T10:40:18;4.07;;;1.83;;
2646;SDS011;1333;50.958;6.770;2023-04-24T10:42:51;4.77;;;2.03;;
2646;SDS011;1333;50.958;6.770;2023-04-24T10:45:20;2.27;;;2.10;;
2646;SDS011;1333;50.958;6.770;2023-04-24T10:47:56;3.33;;;2.40;;
2646;SDS011;1333;50.958;6.770;2023-04-24T10:50:24;4.23;;;2.60;;
2646;SDS011;1333;50.958;6.770;2023-04-24T10:52:51;4.70;;;2.03;;
2646;SDS011;1333;50.958;6.770;2023-04-24T10:58:07;5.40;;;2.50;;
2646;SDS011;1333;50.958;6.770;2023-04-24T11:00:33;4.10;;;2.23;;
2646;SDS011;1333;50.958;6.770;2023-04-24T11:03:03;6.33;;;2.43;;
2646;SDS011;1333;50.958;6.770;2023-04-24T11:05:49;5.73;;;3.10;;
2646;SDS011;1333;50.958;6.770;2023-04-24T11:08:22;3.40;;;2.33;;
2646;SDS011;1333;50.958;6.770;2023-04-24T11:13:25;3.83;;;1.73;;
2646;SDS011;1333;50.958;6.770;2023-04-24T11:16:11;3.57;;;2.87;;
2646;SDS011;1333;50.958;6.770;2023-04-24T11:18:52;4.70;;;2.17;;
2646;SDS011;1333;50.958;6.770;2023-04-24T11:21:25;4.10;;;1.97;;
2646;SDS011;1333;50.958;6.770;2023-04-24T11:23:56;7.07;;;2.70;;
2646;SDS011;1333;50.958;6.770;2023-04-24T11:26:22;4.10;;;2.30;;
2646;SDS011;1333;50.958;6.770;2023-04-24T11:28:55;3.50;;;2.50;;
2646;SDS011;1333;50.958;6.770;2023-04-24T11:31:38;3.83;;;2.43;;
2646;SDS011;1333;50.958;6.770;2023-04-24T11:36:38;5.13;;;2.43;;
2646;SDS011;1333;50.958;6.770;2023-04-24T11:39:04;5.80;;;2.70;;
2646;SDS011;1333;50.958;6.770;2023-04-24T11:41:30;3.83;;;2.50;;
2646;SDS011;1333;50.958;6.770;2023-04-24T11:43:56;3.60;;;2.50;;
2646;SDS011;1333;50.958;6.770;2023-04-24T11:46:22;2.63;;;2.20;;
2646;SDS011;1333;50.958;6.770;2023-04-24T11:48:48;5.67;;;2.50;;
2646;SDS011;1333;50.958;6.770;2023-04-24T11:51:13;4.37;;;2.80;;
2646;SDS011;1333;50.958;6.770;2023-04-24T11:53:39;2.20;;;1.60;;
2646;SDS011;1333;50.958;6.770;2023-04-24T11:56:05;4.40;;;2.50;;
2646;SDS011;1333;50.958;6.770;2023-04-24T11:58:51;4.07;;;2.10;;
2646;SDS011;1333;50.958;6.770;2023-04-24T12:01:18;3.83;;;2.03;;
2646;SDS011;1333;50.958;6.770;2023-04-24T12:03:48;2.40;;;2.20;;
2646;SDS011;1333;50.958;6.770;2023-04-24T12:06:15;3.60;;;2.43;;
2646;SDS011;1333;50.958;6.770;2023-04-24T12:08:41;2.93;;;2.20;;
2646;SDS011;1333;50.958;6.770;2023-04-24T12:11:10;4.50;;;2.40;;
2646;SDS011;1333;50.958;6.770;2023-04-24T12:13:36;7.87;;;2.83;;
2646;SDS011;1333;50.958;6.770;2023-04-24T12:16:03;4.27;;;3.03;;
2646;SDS011;1333;50.958;6.770;2023-04-24T12:18:32;5.67;;;2.30;;
2646;SDS011;1333;50.958;6.770;2023-04-24T12:23:42;8.57;;;2.90;;
2646;SDS011;1333;50.958;6.770;2023-04-24T12:26:09;2.60;;;2.40;;
2646;SDS011;1333;50.958;6.770;2023-04-24T12:28:35;4.20;;;2.53;;
2646;SDS011;1333;50.958;6.770;2023-04-24T12:31:02;4.70;;;2.47;;
2646;SDS011;1333;50.958;6.770;2023-04-24T12:33:28;8.70;;;2.97;;
2646;SDS011;1333;50.958;6.770;2023-04-24T12:35:59;5.67;;;2.70;;
2646;SDS011;1333;50.958;6.770;2023-04-24T12:38:25;4.87;;;2.87;;
2646;SDS011;1333;50.958;6.770;2023-04-24T12:41:07;3.50;;;2.57;;
2646;SDS011;1333;50.958;6.770;2023-04-24T12:43:34;4.40;;;3.00;;
2646;SDS011;1333;50.958;6.770;2023-04-24T12:46:01;6.37;;;2.40;;
2646;SDS011;1333;50.958;6.770;2023-04-24T12:48:27;5.30;;;3.33;;
2646;SDS011;1333;50.958;6.770;2023-04-24T12:50:53;4.53;;;2.90;;
2646;SDS011;1333;50.958;6.770;2023-04-24T12:53:20;8.53;;;2.40;;
2646;SDS011;1333;50.958;6.770;2023-04-24T12:55:45;5.63;;;2.47;;
2646;SDS011;1333;50.958;6.770;2023-04-24T12:58:17;7.83;;;2.40;;
2646;SDS011;1333;50.958;6.770;2023-04-24T13:00:43;4.53;;;2.70;;
2646;SDS011;1333;50.958;6.770;2023-04-24T13:03:10;4.70;;;2.70;;
2646;SDS011;1333;50.958;6.770;2023-04-24T13:05:36;6.40;;;2.60;;
2646;SDS011;1333;50.958;6.770;2023-04-24T13:08:02;5.20;;;2.70;;
2646;SDS011;1333;50.958;6.770;2023-04-24T13:10:27;5.57;;;3.00;;
2646;SDS011;1333;50.958;6.770;2023-04-24T13:12:53;3.37;;;2.60;;
2646;SDS011;1333;50.958;6.770;2023-04-24T13:15:19;7.27;;;3.70;;
2646;SDS011;1333;50.958;6.770;2023-04-24T13:17:45;3.50;;;2.70;;
2646;SDS011;1333;50.958;6.770;2023-04-24T13:20:10;3.20;;;2.90;;
2646;SDS011;1333;50.958;6.770;2023-04-24T13:22:36;3.63;;;2.63;;
2646;SDS011;1333;50.958;6.770;2023-04-24T13:25:02;6.77;;;2.80;;
2646;SDS011;1333;50.958;6.770;2023-04-24T13:27:28;4.27;;;2.70;;
2646;SDS011;1333;50.958;6.770;2023-04-24T13:29:53;2.80;;;2.60;;
2646;SDS011;1333;50.958;6.770;2023-04-24T13:32:19;3.47;;;1.80;;
2646;SDS011;1333;50.958;6.770;2023-04-24T13:34:45;3.23;;;2.43;;
2646;SDS011;1333;50.958;6.770;2023-04-24T13:37:11;3.90;;;2.17;;
2646;SDS011;1333;50.958;6.770;2023-04-24T13:39:36;2.50;;;2.10;;
2646;SDS011;1333;50.958;6.770;2023-04-24T13:42:02;5.10;;;2.67;;
2646;SDS011;1333;50.958;6.770;2023-04-24T13:44:28;2.97;;;2.20;;
2646;SDS011;1333;50.958;6.770;2023-04-24T13:46:54;4.53;;;2.97;;
2646;SDS011;1333;50.958;6.770;2023-04-24T13:49:21;4.80;;;2.23;;
2646;SDS011;1333;50.958;6.770;2023-04-24T13:51:49;5.30;;;3.00;;
2646;SDS011;1333;50.958;6.770;2023-04-24T13:54:15;5.97;;;2.53;;
2646;SDS011;1333;50.958;6.770;2023-04-24T13:56:41;3.73;;;2.40;;
2646;SDS011;1333;50.958;6.770;2023-04-24T13:59:07;4.20;;;2.20;;
2646;SDS011;1333;50.958;6.770;2023-04-24T14:01:33;4.17;;;2.17;;
2646;SDS011;1333;50.958;6.770;2023-04-24T14:03:58;7.70;;;3.17;;
2646;SDS011;1333;50.958;6.770;2023-04-24T14:06:24;5.20;;;2.40;;
2646;SDS011;1333;50.958;6.770;2023-04-24T14:08:50;4.23;;;2.50;;
2646;SDS011;1333;50.958;6.770;2023-04-24T14:11:16;3.20;;;2.90;;
2646;SDS011;1333;50.958;6.770;2023-04-24T14:13:43;3.93;;;2.43;;
2646;SDS011;1333;50.958;6.770;2023-04-24T14:16:09;4.63;;;2.80;;
2646;SDS011;1333;50.958;6.770;2023-04-24T14:18:35;3.67;;;2.17;;
2646;SDS011;1333;50.958;6.770;2023-04-24T14:21:01;8.20;;;2.90;;
2646;SDS011;1333;50.958;6.770;2023-04-24T14:23:27;5.00;;;2.43;;
2646;SDS011;1333;50.958;6.770;2023-04-24T14:25:53;2.23;;;2.03;;
2646;SDS011;1333;50.958;6.770;2023-04-24T14:28:19;3.17;;;2.87;;
2646;SDS011;1333;50.958;6.770;2023-04-24T14:30:45;3.40;;;2.90;;
2646;SDS011;1333;50.958;6.770;2023-04-24T14:33:11;7.30;;;3.27;;
2646;SDS011;1333;50.958;6.770;2023-04-24T14:35:37;5.20;;;2.70;;
2646;SDS011;1333;50.958;6.770;2023-04-24T14:38:03;2.83;;;2.60;;
2646;SDS011;1333;50.958;6.770;2023-04-24T14:40:29;5.27;;;2.93;;
2646;SDS011;1333;50.958;6.770;2023-04-24T14:42:56;6.47;;;3.10;;
2646;SDS011;1333;50.958;6.770;2023-04-24T14:45:22;4.30;;;3.40;;
2646;SDS011;1333;50.958;6.770;2023-04-24T14:47:48;5.13;;;3.00;;
2646;SDS011;1333;50.958;6.770;2023-04-24T14:50:13;4.03;;;2.47;;
2646;SDS011;1333;50.958;6.770;2023-04-24T14:52:39;4.17;;;2.97;;
2646;SDS011;1333;50.958;6.770;2023-04-24T14:55:05;4.53;;;2.60;;
2646;SDS011;1333;50.958;6.770;2023-04-24T14:57:31;4.90;;;2.37;;
2646;SDS011;1333;50.958;6.770;2023-04-24T14:59:57;5.20;;;2.97;;
2646;SDS011;1333;50.958;6.770;2023-04-24T15:02:23;3.73;;;2.60;;
2646;SDS011;1333;50.958;6.770;2023-04-24T15:04:48;8.27;;;3.60;;
2646;SDS011;1333;50.958;6.770;2023-04-24T15:07:14;3.10;;;2.73;;
2646;SDS011;1333;50.958;6.770;2023-04-24T15:09:39;7.63;;;2.63;;
2646;SDS011;1333;50.958;6.770;2023-04-24T15:12:05;3.67;;;2.60;;
2646;SDS011;1333;50.958;6.770;2023-04-24T15:14:31;2.40;;;2.20;;
2646;SDS011;1333;50.958;6.770;2023-04-24T15:16:56;2.20;;;2.00;;
2646;SDS011;1333;50.958;6.770;2023-04-24T15:19:22;3.60;;;2.10;;
2646;SDS011;1333;50.958;6.770;2023-04-24T15:21:47;2.87;;;2.53;;